Startpagina
METAR-TAF:

METAR-TAF

Vliegvelden :

Brussel, België

Brussels Airport. Zaventem

breedte: 50-54N, lengte: 004-32E, hoogte: 55 m

Actueel weer

Dit bericht is 16 minuten geleden gemaakt, om 10:50 UTC
Wind 9 kt uit het oosten, variërend tussen het noordoosten en het zuidoosten
Temperatuur 23°C
Vochtigheid 47%
Druk 1021 hPa
Zicht 10 km of meer
geen wolken onder 1500 m en geen cumulonimbus

METAR: EBBR 261050Z 09009KT 050V130 CAVOK 23/11 Q1021 NOSIG

Tijdstip: 13:06 (11:06 UTC)

Verwachting

Dit bericht is 6 uur en het 6 minuten geleden gemaakt, om 05:00 UTC
Verwachting geldig van 26 om 06 UTC tot 27 om 12 UTC
Wind 8 kt uit het oosten
Zicht 10 km of meer
geen wolken onder 1500 m en geen cumulonimbus
Wijzigt naar
van 27 om 08 UTC tot 27 om 10 UTC
Wind 10 kt uit het zuidzuidoosten

TAF: EBBR 260500Z 2606/2712 09008KT CAVOK BECMG 2708/2710 15010KT

Waarnemingen en weersverwachtingen van meer dan 4000 vliegvelden (METAR en TAF).

De beschikbare stations zijn de gele en rode punten op de kaart.

Ga met uw muis naar het station om de naam te zien.

Klik dan om waarnemingen en weersverwachtingen te zien.

kaart wijzigen: klik op de groene knoppen met een zwart kruis om in te zoomen, op de groene knop met een streepje om uit te zoomen of op de groene pijlen voor aangrenzende kaarten.


METAR-TAF: